sensor_id;sensor_type;location;lat;lon;timestamp;pressure;altitude;pressure_sealevel;temperature;humidity
45941;BME280;31858;46.008;8.978;2023-02-14T00:02:42;96205.47;;;5.07;100.00
45941;BME280;31858;46.008;8.978;2023-02-14T00:12:44;96204.09;;;5.09;98.48
45941;BME280;31858;46.008;8.978;2023-02-14T00:22:46;96189.59;;;5.07;95.45
45941;BME280;31858;46.008;8.978;2023-02-14T00:32:49;96180.50;;;4.99;98.51
45941;BME280;31858;46.008;8.978;2023-02-14T00:42:51;96179.63;;;4.90;100.00
45941;BME280;31858;46.008;8.978;2023-02-14T00:52:53;96173.84;;;5.02;98.70
45941;BME280;31858;46.008;8.978;2023-02-14T01:02:55;96166.44;;;4.90;98.25
45941;BME280;31858;46.008;8.978;2023-02-14T01:12:58;96158.13;;;4.83;97.38
45941;BME280;31858;46.008;8.978;2023-02-14T01:23:00;96154.00;;;4.77;98.79
45941;BME280;31858;46.008;8.978;2023-02-14T01:33:03;96143.06;;;4.70;99.83
45941;BME280;31858;46.008;8.978;2023-02-14T01:43:07;96145.13;;;4.73;100.00
45941;BME280;31858;46.008;8.978;2023-02-14T01:53:12;96133.38;;;4.65;99.04
45941;BME280;31858;46.008;8.978;2023-02-14T02:03:16;96130.06;;;4.59;100.00
45941;BME280;31858;46.008;8.978;2023-02-14T02:13:21;96120.78;;;4.62;100.00
45941;BME280;31858;46.008;8.978;2023-02-14T02:34:28;96114.81;;;4.56;100.00
45941;BME280;31858;46.008;8.978;2023-02-14T02:44:43;96100.44;;;4.35;100.00
45941;BME280;31858;46.008;8.978;2023-02-14T02:54:53;96108.34;;;4.21;100.00
45941;BME280;31858;46.008;8.978;2023-02-14T03:05:01;96101.31;;;4.31;100.00
45941;BME280;31858;46.008;8.978;2023-02-14T03:15:11;96099.47;;;4.45;99.68
45941;BME280;31858;46.008;8.978;2023-02-14T03:25:30;96083.44;;;4.41;100.00
45941;BME280;31858;46.008;8.978;2023-02-14T03:35:39;96074.63;;;4.32;100.00
45941;BME280;31858;46.008;8.978;2023-02-14T03:45:50;96064.84;;;4.33;100.00
45941;BME280;31858;46.008;8.978;2023-02-14T03:55:57;96057.53;;;4.43;100.00
45941;BME280;31858;46.008;8.978;2023-02-14T04:06:03;96052.16;;;4.35;100.00
45941;BME280;31858;46.008;8.978;2023-02-14T04:16:05;96045.09;;;4.44;99.80
45941;BME280;31858;46.008;8.978;2023-02-14T04:26:08;96036.50;;;4.38;98.98
45941;BME280;31858;46.008;8.978;2023-02-14T04:36:10;96021.84;;;4.32;100.00
45941;BME280;31858;46.008;8.978;2023-02-14T04:46:13;96019.41;;;4.22;97.74
45941;BME280;31858;46.008;8.978;2023-02-14T04:56:14;96017.16;;;4.43;96.87
45941;BME280;31858;46.008;8.978;2023-02-14T05:06:17;96006.81;;;4.33;97.30
45941;BME280;31858;46.008;8.978;2023-02-14T05:16:19;96004.16;;;4.33;97.49
45941;BME280;31858;46.008;8.978;2023-02-14T05:26:22;96002.50;;;4.23;97.63
45941;BME280;31858;46.008;8.978;2023-02-14T05:36:24;96008.75;;;4.41;94.80
45941;BME280;31858;46.008;8.978;2023-02-14T05:46:26;96007.16;;;4.53;92.70
45941;BME280;31858;46.008;8.978;2023-02-14T05:56:28;96012.06;;;4.46;93.17
45941;BME280;31858;46.008;8.978;2023-02-14T06:06:31;96006.91;;;4.14;98.04
45941;BME280;31858;46.008;8.978;2023-02-14T06:16:32;96014.72;;;4.05;100.00
45941;BME280;31858;46.008;8.978;2023-02-14T06:26:35;96027.22;;;4.00;100.00
45941;BME280;31858;46.008;8.978;2023-02-14T06:36:37;96037.41;;;4.06;99.94
45941;BME280;31858;46.008;8.978;2023-02-14T06:46:40;96051.97;;;4.17;97.65
45941;BME280;31858;46.008;8.978;2023-02-14T06:56:42;96061.94;;;4.34;96.83
45941;BME280;31858;46.008;8.978;2023-02-14T07:06:45;96078.53;;;4.35;93.58
45941;BME280;31858;46.008;8.978;2023-02-14T07:16:46;96083.63;;;4.45;91.76
45941;BME280;31858;46.008;8.978;2023-02-14T07:26:49;96081.88;;;4.40;95.66
45941;BME280;31858;46.008;8.978;2023-02-14T07:36:51;96089.78;;;4.26;97.80
45941;BME280;31858;46.008;8.978;2023-02-14T07:46:54;96095.34;;;4.52;95.78
45941;BME280;31858;46.008;8.978;2023-02-14T07:56:55;96099.94;;;4.61;95.73
45941;BME280;31858;46.008;8.978;2023-02-14T08:06:58;96106.19;;;4.65;96.14
45941;BME280;31858;46.008;8.978;2023-02-14T08:17:00;96112.84;;;4.76;99.86
45941;BME280;31858;46.008;8.978;2023-02-14T08:27:03;96111.03;;;4.99;91.47
45941;BME280;31858;46.008;8.978;2023-02-14T08:37:04;96106.16;;;4.92;89.98
45941;BME280;31858;46.008;8.978;2023-02-14T08:47:07;96111.53;;;5.01;81.27
45941;BME280;31858;46.008;8.978;2023-02-14T08:57:09;96104.66;;;5.36;74.69
45941;BME280;31858;46.008;8.978;2023-02-14T09:07:12;96095.94;;;5.35;79.42
45941;BME280;31858;46.008;8.978;2023-02-14T09:17:15;96099.00;;;5.06;85.90
45941;BME280;31858;46.008;8.978;2023-02-14T09:27:19;96103.78;;;5.04;91.91
45941;BME280;31858;46.008;8.978;2023-02-14T09:37:20;96098.69;;;5.30;97.26
45941;BME280;31858;46.008;8.978;2023-02-14T09:47:33;96091.13;;;5.82;90.82
45941;BME280;31858;46.008;8.978;2023-02-14T09:57:41;96088.19;;;6.06;88.57
45941;BME280;31858;46.008;8.978;2023-02-14T10:07:55;96097.13;;;6.18;81.33
45941;BME280;31858;46.008;8.978;2023-02-14T10:18:00;96089.59;;;6.51;77.09
45941;BME280;31858;46.008;8.978;2023-02-14T10:28:08;96084.38;;;6.86;66.43
45941;BME280;31858;46.008;8.978;2023-02-14T10:38:20;96070.22;;;7.16;61.83
45941;BME280;31858;46.008;8.978;2023-02-14T10:48:29;96057.88;;;7.55;68.65
45941;BME280;31858;46.008;8.978;2023-02-14T10:58:34;96042.00;;;7.93;69.80
45941;BME280;31858;46.008;8.978;2023-02-14T11:08:39;96037.19;;;8.33;59.57
45941;BME280;31858;46.008;8.978;2023-02-14T11:18:41;96022.63;;;8.69;59.30
45941;BME280;31858;46.008;8.978;2023-02-14T11:28:52;96012.09;;;9.02;59.31
45941;BME280;31858;46.008;8.978;2023-02-14T11:39:04;96005.09;;;9.63;54.91
45941;BME280;31858;46.008;8.978;2023-02-14T11:49:22;95988.47;;;10.24;51.64
45941;BME280;31858;46.008;8.978;2023-02-14T11:59:29;95972.97;;;10.54;51.03
45941;BME280;31858;46.008;8.978;2023-02-14T12:09:33;95970.59;;;10.76;51.18
45941;BME280;31858;46.008;8.978;2023-02-14T12:19:43;95964.88;;;11.02;51.15
45941;BME280;31858;46.008;8.978;2023-02-14T12:29:51;95940.94;;;11.34;50.45
45941;BME280;31858;46.008;8.978;2023-02-14T12:40:11;95923.09;;;11.82;49.21
45941;BME280;31858;46.008;8.978;2023-02-14T13:00:38;95885.75;;;12.17;45.84
45941;BME280;31858;46.008;8.978;2023-02-14T13:10:52;95868.59;;;12.53;47.41
45941;BME280;31858;46.008;8.978;2023-02-14T13:20:59;95847.88;;;12.88;47.66
45941;BME280;31858;46.008;8.978;2023-02-14T13:31:02;95840.50;;;13.24;45.75
45941;BME280;31858;46.008;8.978;2023-02-14T13:41:06;95829.22;;;13.34;43.80
45941;BME280;31858;46.008;8.978;2023-02-14T13:51:09;95814.28;;;13.56;42.24
45941;BME280;31858;46.008;8.978;2023-02-14T14:01:31;95809.03;;;13.63;41.44
45941;BME280;31858;46.008;8.978;2023-02-14T14:11:57;95807.97;;;13.94;42.71
45941;BME280;31858;46.008;8.978;2023-02-14T14:22:04;95795.91;;;14.07;40.02
45941;BME280;31858;46.008;8.978;2023-02-14T14:32:08;95797.72;;;14.29;40.56
45941;BME280;31858;46.008;8.978;2023-02-14T14:42:14;95790.81;;;14.28;38.32
45941;BME280;31858;46.008;8.978;2023-02-14T14:52:28;95783.84;;;14.24;38.78
45941;BME280;31858;46.008;8.978;2023-02-14T15:02:32;95787.75;;;14.30;38.21
45941;BME280;31858;46.008;8.978;2023-02-14T15:12:34;95785.03;;;14.26;40.51
45941;BME280;31858;46.008;8.978;2023-02-14T15:22:54;95768.13;;;14.22;39.76
45941;BME280;31858;46.008;8.978;2023-02-14T15:32:56;95769.91;;;14.11;41.11
45941;BME280;31858;46.008;8.978;2023-02-14T15:43:13;95766.78;;;14.06;41.31
45941;BME280;31858;46.008;8.978;2023-02-14T15:53:28;95766.78;;;14.06;42.01
45941;BME280;31858;46.008;8.978;2023-02-14T16:03:35;95768.50;;;13.91;42.29
45941;BME280;31858;46.008;8.978;2023-02-14T16:13:41;95775.56;;;13.76;43.31
45941;BME280;31858;46.008;8.978;2023-02-14T16:23:45;95771.72;;;13.51;44.75
45941;BME280;31858;46.008;8.978;2023-02-14T16:33:47;95758.00;;;13.29;44.38
45941;BME280;31858;46.008;8.978;2023-02-14T16:43:50;95763.00;;;13.08;44.93
45941;BME280;31858;46.008;8.978;2023-02-14T16:53:52;95771.94;;;12.93;42.52
45941;BME280;31858;46.008;8.978;2023-02-14T17:03:56;95776.56;;;12.96;41.92
45941;BME280;31858;46.008;8.978;2023-02-14T17:13:58;95781.06;;;12.50;42.80
45941;BME280;31858;46.008;8.978;2023-02-14T17:24:01;95786.50;;;11.99;44.12
45941;BME280;31858;46.008;8.978;2023-02-14T17:34:03;95790.63;;;11.61;45.65
45941;BME280;31858;46.008;8.978;2023-02-14T17:44:05;95786.44;;;11.29;46.01
45941;BME280;31858;46.008;8.978;2023-02-14T17:54:07;95778.88;;;10.99;45.77
45941;BME280;31858;46.008;8.978;2023-02-14T18:04:10;95777.97;;;10.79;47.20
45941;BME280;31858;46.008;8.978;2023-02-14T18:14:12;95772.28;;;10.65;46.95
45941;BME280;31858;46.008;8.978;2023-02-14T18:24:15;95769.66;;;10.53;46.91
45941;BME280;31858;46.008;8.978;2023-02-14T18:34:17;95778.78;;;10.52;47.52
45941;BME280;31858;46.008;8.978;2023-02-14T18:44:20;95783.03;;;10.41;47.61
45941;BME280;31858;46.008;8.978;2023-02-14T18:54:22;95771.94;;;10.23;47.55
45941;BME280;31858;46.008;8.978;2023-02-14T19:04:25;95766.38;;;10.16;46.49
45941;BME280;31858;46.008;8.978;2023-02-14T19:14:28;95769.50;;;10.06;46.78
45941;BME280;31858;46.008;8.978;2023-02-14T19:24:31;95775.41;;;9.99;47.00
45941;BME280;31858;46.008;8.978;2023-02-14T19:34:32;95777.09;;;9.92;47.94
45941;BME280;31858;46.008;8.978;2023-02-14T19:44:35;95773.53;;;9.88;47.72
45941;BME280;31858;46.008;8.978;2023-02-14T19:54:37;95766.69;;;9.74;46.76
45941;BME280;31858;46.008;8.978;2023-02-14T20:04:40;95778.00;;;9.71;46.04
45941;BME280;31858;46.008;8.978;2023-02-14T20:14:42;95779.13;;;9.58;45.78
45941;BME280;31858;46.008;8.978;2023-02-14T20:24:45;95780.13;;;9.54;46.28
45941;BME280;31858;46.008;8.978;2023-02-14T20:34:46;95784.22;;;9.51;45.78
45941;BME280;31858;46.008;8.978;2023-02-14T20:44:51;95778.91;;;9.51;45.73
45941;BME280;31858;46.008;8.978;2023-02-14T20:54:52;95781.47;;;9.47;45.69
45941;BME280;31858;46.008;8.978;2023-02-14T21:04:55;95774.03;;;9.41;46.69
45941;BME280;31858;46.008;8.978;2023-02-14T21:14:59;95765.38;;;9.32;47.13
45941;BME280;31858;46.008;8.978;2023-02-14T21:25:02;95766.72;;;9.26;46.80
45941;BME280;31858;46.008;8.978;2023-02-14T21:35:04;95758.19;;;9.20;46.96
45941;BME280;31858;46.008;8.978;2023-02-14T21:45:09;95759.84;;;9.12;47.59
45941;BME280;31858;46.008;8.978;2023-02-14T21:55:29;95758.31;;;8.99;47.88
45941;BME280;31858;46.008;8.978;2023-02-14T22:05:31;95759.63;;;8.93;48.34
45941;BME280;31858;46.008;8.978;2023-02-14T22:15:33;95757.19;;;8.88;47.76
45941;BME280;31858;46.008;8.978;2023-02-14T22:25:38;95752.94;;;8.75;47.55
45941;BME280;31858;46.008;8.978;2023-02-14T22:35:39;95752.16;;;8.74;48.05
45941;BME280;31858;46.008;8.978;2023-02-14T22:45:42;95746.81;;;8.62;47.81
45941;BME280;31858;46.008;8.978;2023-02-14T22:55:44;95758.56;;;8.61;46.72
45941;BME280;31858;46.008;8.978;2023-02-14T23:05:47;95747.38;;;8.56;47.51
45941;BME280;31858;46.008;8.978;2023-02-14T23:15:51;95755.34;;;8.56;47.94
45941;BME280;31858;46.008;8.978;2023-02-14T23:26:17;95751.88;;;8.43;47.40
45941;BME280;31858;46.008;8.978;2023-02-14T23:36:19;95744.09;;;8.38;47.85
45941;BME280;31858;46.008;8.978;2023-02-14T23:46:22;95736.72;;;8.43;47.05
45941;BME280;31858;46.008;8.978;2023-02-14T23:56:24;95735.28;;;8.46;46.86
